createdAt,value
2018-05-26T00:01:47.264Z,19.85
2018-05-26T00:04:17.213Z,19.87
2018-05-26T00:06:48.619Z,19.88
2018-05-26T00:09:20.269Z,19.83
2018-05-26T00:11:54.499Z,19.82
2018-05-26T00:14:26.080Z,19.70
2018-05-26T00:16:57.350Z,19.49
2018-05-26T00:19:30.129Z,19.36
2018-05-26T00:22:00.315Z,19.37
2018-05-26T00:24:34.646Z,19.13
2018-05-26T00:27:06.147Z,19.08
2018-05-26T00:29:37.609Z,19.09
2018-05-26T00:32:10.763Z,19.23
2018-05-26T00:34:42.208Z,19.31
2018-05-26T00:37:15.181Z,19.34
2018-05-26T00:39:49.561Z,19.36
2018-05-26T00:42:22.526Z,19.27
2018-05-26T00:44:55.407Z,19.19
2018-05-26T00:47:27.119Z,19.11
2018-05-26T00:50:00.500Z,19.00
2018-05-26T00:52:30.400Z,18.92
2018-05-26T00:55:01.842Z,18.87
2018-05-26T00:57:34.686Z,18.81
2018-05-26T01:00:06.389Z,18.81
2018-05-26T01:02:39.329Z,18.85
2018-05-26T01:05:12.216Z,18.73
2018-05-26T01:07:46.621Z,18.71
2018-05-26T01:10:17.608Z,18.70
2018-05-26T01:12:50.881Z,18.83
2018-05-26T01:15:23.203Z,18.93
2018-05-26T01:17:57.600Z,18.91
2018-05-26T01:20:31.759Z,18.86
2018-05-26T01:23:01.830Z,18.71
2018-05-26T01:25:34.775Z,18.69
2018-05-26T01:28:07.615Z,18.72
2018-05-26T01:30:40.713Z,18.76
2018-05-26T01:33:12.702Z,18.71
2018-05-26T01:35:44.401Z,18.77
2018-05-26T01:38:15.880Z,18.72
2018-05-26T01:40:47.285Z,18.70
2018-05-26T01:43:19.126Z,18.67
2018-05-26T01:45:51.263Z,18.54
2018-05-26T01:48:22.549Z,18.55
2018-05-26T01:50:53.349Z,18.48
2018-05-26T01:53:26.224Z,18.43
2018-05-26T01:55:57.866Z,18.51
2018-05-26T01:58:29.306Z,18.48
2018-05-26T02:01:03.570Z,18.57
2018-05-26T02:03:36.555Z,18.62
2018-05-26T02:06:09.479Z,18.58
2018-05-26T02:08:42.357Z,18.61
2018-05-26T02:11:15.754Z,18.64
2018-05-26T02:13:47.732Z,18.58
2018-05-26T02:16:19.233Z,18.45
2018-05-26T02:18:52.161Z,18.42
2018-05-26T02:21:26.240Z,18.29
2018-05-26T02:24:00.829Z,18.44
2018-05-26T02:26:30.748Z,18.38
2018-05-26T02:29:02.224Z,18.33
2018-05-26T02:31:33.967Z,18.30
2018-05-26T02:34:05.769Z,18.28
2018-05-26T02:36:38.794Z,18.37
2018-05-26T02:39:13.128Z,18.37
2018-05-26T02:41:46.421Z,18.37
2018-05-26T02:44:19.472Z,18.33
2018-05-26T02:46:54.248Z,18.34
2018-05-26T02:49:24.878Z,18.32
2018-05-26T02:51:55.300Z,18.26
2018-05-26T02:54:26.738Z,18.20
2018-05-26T02:56:57.982Z,18.10
2018-05-26T02:59:29.464Z,18.12
2018-05-26T03:02:02.268Z,17.86
2018-05-26T03:04:51.394Z,17.82
2018-05-26T03:07:39.037Z,17.84
2018-05-26T03:10:28.710Z,17.66
2018-05-26T03:13:16.794Z,17.66
2018-05-26T03:15:52.056Z,17.73
2018-05-26T03:18:25.047Z,17.77
2018-05-26T03:20:56.404Z,17.86
2018-05-26T03:23:29.362Z,17.85
2018-05-26T03:26:02.329Z,17.89
2018-05-26T03:28:34.382Z,17.85
2018-05-26T03:31:07.194Z,17.89
2018-05-26T03:33:40.559Z,17.99
2018-05-26T03:36:12.450Z,18.13
2018-05-26T03:38:45.618Z,18.21
2018-05-26T03:41:18.461Z,18.21
2018-05-26T03:43:49.143Z,18.20
2018-05-26T03:46:21.448Z,18.28
2018-05-26T03:48:56.048Z,18.41
2018-05-26T03:51:28.459Z,18.54
2018-05-26T03:54:01.240Z,18.71
2018-05-26T03:57:09.080Z,18.87
2018-05-26T04:00:14.991Z,18.70
2018-05-26T04:02:46.423Z,18.58
2018-05-26T04:05:17.828Z,18.60
2018-05-26T04:07:47.762Z,18.59
2018-05-26T04:10:19.270Z,18.76
2018-05-26T04:12:49.888Z,18.98
2018-05-26T04:15:22.712Z,19.15
2018-05-26T04:17:54.667Z,19.25
2018-05-26T04:20:27.534Z,19.37
2018-05-26T04:23:01.050Z,19.55
2018-05-26T04:25:32.853Z,19.63
2018-05-26T04:28:04.779Z,19.97
2018-05-26T04:30:35.723Z,20.28
2018-05-26T04:33:08.543Z,20.52
2018-05-26T04:35:42.826Z,20.70
2018-05-26T04:38:14.935Z,20.93
2018-05-26T04:40:46.989Z,21.11
2018-05-26T04:43:18.342Z,21.20
2018-05-26T04:45:49.798Z,21.36
2018-05-26T04:48:22.954Z,21.65
2018-05-26T04:50:54.264Z,21.46
2018-05-26T04:53:28.760Z,21.77
2018-05-26T04:55:59.381Z,21.67
2018-05-26T04:58:32.728Z,22.41
2018-05-26T05:01:04.000Z,22.35
2018-05-26T05:03:38.406Z,22.78
2018-05-26T05:06:11.285Z,22.87
2018-05-26T05:08:45.512Z,23.17
2018-05-26T05:11:18.343Z,23.13
2018-05-26T05:13:52.589Z,23.16
2018-05-26T05:16:22.509Z,23.32
2018-05-26T05:18:56.892Z,23.12
2018-05-26T05:21:31.209Z,23.45
2018-05-26T05:24:01.142Z,23.75
2018-05-26T05:26:31.675Z,23.77
2018-05-26T05:29:03.153Z,23.62
2018-05-26T05:31:34.795Z,23.70
2018-05-26T05:34:09.042Z,24.16
2018-05-26T05:36:40.708Z,24.38
2018-05-26T05:39:10.722Z,24.89
2018-05-26T05:41:43.190Z,23.82
2018-05-26T05:44:14.544Z,24.85
2018-05-26T05:46:45.890Z,25.68
2018-05-26T05:49:16.571Z,25.70
2018-05-26T05:51:49.766Z,25.76
2018-05-26T05:54:22.742Z,25.55
2018-05-26T05:56:54.186Z,25.80
2018-05-26T05:59:27.085Z,25.76
2018-05-26T06:01:58.495Z,25.67
2018-05-26T06:04:30.061Z,25.53
2018-05-26T06:06:59.940Z,25.71
2018-05-26T06:09:32.710Z,25.70
2018-05-26T06:12:03.531Z,25.88
2018-05-26T06:14:37.243Z,26.16
2018-05-26T06:17:11.542Z,26.66
2018-05-26T06:19:45.229Z,26.35
2018-05-26T06:22:18.172Z,26.57
2018-05-26T06:24:51.845Z,26.31
2018-05-26T06:27:26.880Z,26.76
2018-05-26T06:29:58.199Z,27.12
2018-05-26T06:32:32.030Z,26.73
2018-05-26T06:35:05.222Z,25.98
2018-05-26T06:37:35.051Z,27.41
2018-05-26T06:40:08.495Z,28.08
2018-05-26T06:42:39.487Z,28.44
2018-05-26T06:45:11.566Z,27.59
2018-05-26T06:47:45.127Z,28.27
2018-05-26T06:50:15.558Z,28.68
2018-05-26T06:52:44.866Z,28.48
2018-05-26T06:55:16.193Z,29.04
2018-05-26T06:57:45.259Z,29.01
2018-05-26T07:00:18.096Z,28.54
2018-05-26T07:02:50.964Z,29.67
2018-05-26T07:05:23.828Z,30.26
2018-05-26T07:07:55.180Z,30.04
2018-05-26T07:10:27.586Z,30.01
2018-05-26T07:13:00.307Z,29.90
2018-05-26T07:15:30.147Z,29.48
2018-05-26T07:18:00.379Z,30.05
2018-05-26T07:20:35.580Z,29.92
2018-05-26T07:23:06.172Z,30.27
2018-05-26T07:25:37.500Z,30.39
2018-05-26T07:28:08.984Z,30.76
2018-05-26T07:30:43.297Z,29.74
2018-05-26T07:33:16.074Z,30.70
2018-05-26T07:35:45.950Z,30.67
2018-05-26T07:38:19.875Z,30.68
2018-05-26T07:40:50.939Z,31.41
2018-05-26T07:43:23.798Z,30.59
2018-05-26T07:45:55.234Z,31.47
2018-05-26T07:48:25.948Z,30.56
2018-05-26T07:50:57.323Z,30.47
2018-05-26T07:53:30.067Z,29.55
2018-05-26T07:56:01.893Z,31.09
2018-05-26T07:58:34.867Z,31.37
2018-05-26T08:01:07.595Z,30.51
2018-05-26T08:03:38.157Z,31.47
2018-05-26T08:06:09.519Z,31.06
2018-05-26T08:08:40.859Z,31.42
2018-05-26T08:11:15.263Z,32.29
2018-05-26T08:13:48.113Z,31.80
2018-05-26T08:16:17.985Z,31.90
2018-05-26T08:18:49.048Z,31.50
2018-05-26T08:21:21.744Z,31.70
2018-05-26T08:23:54.703Z,31.59
2018-05-26T08:26:24.512Z,31.55
2018-05-26T08:28:54.943Z,31.34
2018-05-26T08:31:27.995Z,31.40
2018-05-26T08:34:00.782Z,31.51
2018-05-26T08:36:31.352Z,31.45
2018-05-26T08:39:03.615Z,31.03
2018-05-26T08:41:35.736Z,31.08
2018-05-26T08:44:09.923Z,30.87
2018-05-26T08:46:44.257Z,30.81
2018-05-26T08:49:17.010Z,30.24
2018-05-26T08:51:50.229Z,30.73
2018-05-26T08:54:21.711Z,30.20
2018-05-26T08:56:53.020Z,31.29
2018-05-26T08:59:25.223Z,30.16
2018-05-26T09:01:55.068Z,30.89
2018-05-26T09:04:27.984Z,30.83
2018-05-26T09:06:59.578Z,30.53
2018-05-26T09:09:31.918Z,30.40
2018-05-26T09:12:03.258Z,30.28
2018-05-26T09:14:37.138Z,30.73
2018-05-26T09:17:06.931Z,30.47
2018-05-26T09:19:37.261Z,30.79
2018-05-26T09:22:10.922Z,30.77
2018-05-26T09:24:44.681Z,30.17
2018-05-26T09:27:17.645Z,30.98
2018-05-26T09:29:51.235Z,31.01
2018-05-26T09:32:22.646Z,30.96
2018-05-26T09:34:54.464Z,30.22
2018-05-26T09:37:26.000Z,30.65
2018-05-26T09:39:58.918Z,30.83
2018-05-26T09:42:28.900Z,30.65
2018-05-26T09:45:01.054Z,30.93
2018-05-26T09:47:33.836Z,30.89
2018-05-26T09:50:04.181Z,30.60
2018-05-26T09:52:37.811Z,30.45
2018-05-26T09:55:09.904Z,30.46
2018-05-26T09:57:41.155Z,30.43
2018-05-26T10:00:15.442Z,30.44
2018-05-26T10:02:48.336Z,30.48
2018-05-26T10:05:19.664Z,30.57
2018-05-26T10:07:52.582Z,30.61
2018-05-26T10:10:23.436Z,30.96
2018-05-26T10:12:53.828Z,30.80
2018-05-26T10:15:28.118Z,30.83
2018-05-26T10:17:59.445Z,30.76
2018-05-26T10:20:32.428Z,30.92
2018-05-26T10:23:06.708Z,31.07
2018-05-26T10:25:40.962Z,31.32
2018-05-26T10:28:12.855Z,31.10
2018-05-26T10:30:43.516Z,31.01
2018-05-26T10:33:16.258Z,30.87
2018-05-26T10:35:47.574Z,31.08
2018-05-26T10:38:19.621Z,30.97
2018-05-26T10:40:52.501Z,30.84
2018-05-26T10:43:23.894Z,30.83
2018-05-26T10:46:29.224Z,30.89
2018-05-26T10:49:01.957Z,30.93
2018-05-26T10:51:32.342Z,31.33
2018-05-26T10:54:04.201Z,31.25
2018-05-26T10:56:37.038Z,31.27
2018-05-26T10:59:09.975Z,31.04
2018-05-26T11:01:43.214Z,31.27
2018-05-26T11:04:16.782Z,31.10
2018-05-26T11:06:52.500Z,31.66
2018-05-26T11:09:23.959Z,31.48
2018-05-26T11:11:55.252Z,31.07
2018-05-26T11:14:28.167Z,31.18
2018-05-26T11:17:00.919Z,30.36
2018-05-26T11:19:31.537Z,31.32
2018-05-26T11:22:04.403Z,31.26
2018-05-26T11:24:35.845Z,30.90
2018-05-26T11:27:08.627Z,30.91
2018-05-26T11:29:42.920Z,30.96
2018-05-26T11:32:14.231Z,30.81
2018-05-26T11:34:48.148Z,30.72
2018-05-26T11:37:19.527Z,30.73
2018-05-26T11:39:51.357Z,30.72
2018-05-26T11:42:24.209Z,30.53
2018-05-26T11:44:57.085Z,30.53
2018-05-26T11:47:27.308Z,30.48
2018-05-26T11:50:00.588Z,30.65
2018-05-26T11:52:32.025Z,30.54
2018-05-26T11:55:03.394Z,30.91
2018-05-26T11:57:34.677Z,30.50
2018-05-26T12:00:06.089Z,30.37
2018-05-26T12:02:37.609Z,30.25
2018-05-26T12:05:08.074Z,30.38
2018-05-26T12:07:39.443Z,29.87
2018-05-26T12:10:12.182Z,29.42
2018-05-26T12:12:46.420Z,29.59
2018-05-26T12:15:16.333Z,30.10
2018-05-26T12:17:47.653Z,30.38
2018-05-26T12:20:20.491Z,30.17
2018-05-26T12:22:53.552Z,29.61
2018-05-26T12:25:26.574Z,30.04
2018-05-26T12:27:56.369Z,30.29
2018-05-26T12:30:30.657Z,30.13
2018-05-26T12:33:02.486Z,29.47
2018-05-26T12:35:36.924Z,30.03
2018-05-26T12:38:11.194Z,30.05
2018-05-26T12:40:40.460Z,30.01
2018-05-26T12:43:13.473Z,29.45
2018-05-26T12:45:46.412Z,29.27
2018-05-26T12:48:19.219Z,29.69
2018-05-26T12:50:50.517Z,29.71
2018-05-26T12:53:20.421Z,29.96
2018-05-26T12:55:50.809Z,29.97
2018-05-26T12:58:23.693Z,29.81
2018-05-26T13:00:54.525Z,29.27
2018-05-26T13:03:27.236Z,30.02
2018-05-26T13:05:59.193Z,29.93
2018-05-26T13:08:31.804Z,29.40
2018-05-26T13:11:03.117Z,30.02
2018-05-26T13:13:36.595Z,30.24
2018-05-26T13:16:08.806Z,29.81
2018-05-26T13:18:39.472Z,29.68
2018-05-26T13:21:13.697Z,29.81
2018-05-26T13:23:47.959Z,29.97
2018-05-26T13:26:18.433Z,29.96
2018-05-26T13:28:51.870Z,29.78
2018-05-26T13:31:22.603Z,30.13
2018-05-26T13:33:56.853Z,30.11
2018-05-26T13:36:29.662Z,30.07
2018-05-26T13:39:02.523Z,30.09
2018-05-26T13:41:34.782Z,30.09
2018-05-26T13:44:05.362Z,29.95
2018-05-26T13:46:38.109Z,29.68
2018-05-26T13:49:11.131Z,29.85
2018-05-26T13:51:41.613Z,29.86
2018-05-26T13:54:12.947Z,29.91
2018-05-26T13:56:47.414Z,29.90
2018-05-26T13:59:21.762Z,30.14
2018-05-26T14:01:53.118Z,30.22
2018-05-26T14:04:27.481Z,29.97
2018-05-26T14:06:59.769Z,29.97
2018-05-26T14:09:32.534Z,29.97
2018-05-26T14:12:04.293Z,29.79
2018-05-26T14:14:36.277Z,29.81
2018-05-26T14:17:09.187Z,29.67
2018-05-26T14:19:41.650Z,29.84
2018-05-26T14:22:14.499Z,29.95
2018-05-26T14:24:45.777Z,30.16
2018-05-26T14:27:18.632Z,30.06
2018-05-26T14:29:50.879Z,30.04
2018-05-26T14:32:22.448Z,29.91
2018-05-26T14:34:55.061Z,29.84
2018-05-26T14:37:29.405Z,29.92
2018-05-26T14:40:03.671Z,29.83
2018-05-26T14:42:38.038Z,29.98
2018-05-26T14:45:12.345Z,29.87
2018-05-26T14:47:45.171Z,30.04
2018-05-26T14:50:18.500Z,29.98
2018-05-26T14:52:48.294Z,30.04
2018-05-26T14:55:21.179Z,29.89
2018-05-26T14:57:53.948Z,29.92
2018-05-26T15:00:26.766Z,29.90
2018-05-26T15:02:59.641Z,29.82
2018-05-26T15:05:33.809Z,29.67
2018-05-26T15:08:06.843Z,29.73
2018-05-26T15:10:40.153Z,29.67
2018-05-26T15:13:13.088Z,29.59
2018-05-26T15:15:47.325Z,29.57
2018-05-26T15:18:20.625Z,29.61
2018-05-26T15:20:52.459Z,29.57
2018-05-26T15:23:25.101Z,29.49
2018-05-26T15:25:58.151Z,29.57
2018-05-26T15:28:29.014Z,29.52
2018-05-26T15:31:00.922Z,29.59
2018-05-26T15:33:33.846Z,29.57
2018-05-26T15:36:06.658Z,29.69
2018-05-26T15:38:38.650Z,29.51
2018-05-26T15:41:11.443Z,29.67
2018-05-26T15:43:43.270Z,29.59
2018-05-26T15:46:14.623Z,29.64
2018-05-26T15:48:45.650Z,29.47
2018-05-26T15:51:16.984Z,29.47
2018-05-26T15:53:51.205Z,29.53
2018-05-26T15:56:25.670Z,29.58
2018-05-26T15:58:59.423Z,29.33
2018-05-26T16:01:29.222Z,29.25
2018-05-26T16:04:02.033Z,29.31
2018-05-26T16:06:32.025Z,29.31
2018-05-26T16:09:04.428Z,29.38
2018-05-26T16:11:38.890Z,29.46
2018-05-26T16:14:11.567Z,29.34
2018-05-26T16:16:44.199Z,29.44
2018-05-26T16:19:16.502Z,29.39
2018-05-26T16:21:49.341Z,29.15
2018-05-26T16:24:23.439Z,29.18
2018-05-26T16:26:56.261Z,29.04
2018-05-26T16:29:29.139Z,29.12
2018-05-26T16:32:03.561Z,29.13
2018-05-26T16:34:37.388Z,29.04
2018-05-26T16:37:11.746Z,29.10
2018-05-26T16:39:41.618Z,28.97
2018-05-26T16:42:14.635Z,29.02
2018-05-26T16:44:45.792Z,29.04
2018-05-26T16:47:19.275Z,29.00
2018-05-26T16:49:48.336Z,28.96
2018-05-26T16:52:20.979Z,28.85
2018-05-26T16:54:53.880Z,28.72
2018-05-26T16:57:25.317Z,28.85
2018-05-26T16:59:58.210Z,28.85
2018-05-26T17:02:28.287Z,28.75
2018-05-26T17:04:59.610Z,28.63
2018-05-26T17:07:30.930Z,28.67
2018-05-26T17:10:03.386Z,28.76
2018-05-26T17:12:36.314Z,28.64
2018-05-26T17:15:07.621Z,28.63
2018-05-26T17:17:39.824Z,28.56
2018-05-26T17:20:12.631Z,28.60
2018-05-26T17:22:45.964Z,28.53
2018-05-26T17:25:19.481Z,28.35
2018-05-26T17:27:50.902Z,28.43
2018-05-26T17:30:24.134Z,28.36
2018-05-26T17:32:56.004Z,28.39
2018-05-26T17:35:30.690Z,28.31
2018-05-26T17:38:02.702Z,28.27
2018-05-26T17:40:34.181Z,28.11
2018-05-26T17:43:04.877Z,28.02
2018-05-26T17:45:36.305Z,28.05
2018-05-26T17:48:05.424Z,27.91
2018-05-26T17:50:38.358Z,27.98
2018-05-26T17:53:07.652Z,27.92
2018-05-26T17:55:42.137Z,27.82
2018-05-26T17:58:15.536Z,27.85
2018-05-26T18:00:49.742Z,27.86
2018-05-26T18:03:23.934Z,27.82
2018-05-26T18:05:56.670Z,27.81
2018-05-26T18:08:27.968Z,27.75
2018-05-26T18:11:02.190Z,27.75
2018-05-26T18:13:32.228Z,27.70
2018-05-26T18:16:02.746Z,27.73
2018-05-26T18:18:35.617Z,27.62
2018-05-26T18:21:06.939Z,27.49
2018-05-26T18:23:37.837Z,27.50
2018-05-26T18:26:10.741Z,27.49
2018-05-26T18:28:43.652Z,27.44
2018-05-26T18:31:15.030Z,27.39
2018-05-26T18:33:49.345Z,27.39
2018-05-26T18:36:19.194Z,27.27
2018-05-26T18:38:49.768Z,27.18
2018-05-26T18:41:22.818Z,27.09
2018-05-26T18:43:54.949Z,27.06
2018-05-26T18:46:27.785Z,27.06
2018-05-26T18:49:02.352Z,26.97
2018-05-26T18:51:34.704Z,26.93
2018-05-26T18:54:08.511Z,26.82
2018-05-26T18:56:38.478Z,26.81
2018-05-26T18:59:12.378Z,26.70
2018-05-26T19:01:45.653Z,26.67
2018-05-26T19:04:20.124Z,26.59
2018-05-26T19:06:51.577Z,26.49
2018-05-26T19:09:21.698Z,26.46
2018-05-26T19:11:53.044Z,26.37
2018-05-26T19:14:23.472Z,26.18
2018-05-26T19:16:57.955Z,26.16
2018-05-26T19:19:31.211Z,26.15
2018-05-26T19:22:02.174Z,26.03
2018-05-26T19:24:32.017Z,25.97
2018-05-26T19:27:02.688Z,25.92
2018-05-26T19:29:34.601Z,25.90
2018-05-26T19:32:06.259Z,25.81
2018-05-26T19:34:38.034Z,25.72
2018-05-26T19:37:13.461Z,25.60
2018-05-26T19:39:44.898Z,25.47
2018-05-26T19:42:16.320Z,25.40
2018-05-26T19:44:47.696Z,25.40
2018-05-26T19:47:22.059Z,25.35
2018-05-26T19:49:53.077Z,25.22
2018-05-26T19:52:28.057Z,25.21
2018-05-26T19:55:02.581Z,25.10
2018-05-26T19:57:34.270Z,25.07
2018-05-26T20:00:07.369Z,25.08
2018-05-26T20:02:38.838Z,25.05
2018-05-26T20:05:10.513Z,25.06
2018-05-26T20:07:44.139Z,24.93
2018-05-26T20:10:17.695Z,24.93
2018-05-26T20:12:48.770Z,24.88
2018-05-26T20:15:21.030Z,24.74
2018-05-26T20:17:52.497Z,24.64
2018-05-26T20:20:24.350Z,24.56
2018-05-26T20:22:57.170Z,24.52
2018-05-26T20:25:30.676Z,24.57
2018-05-26T20:28:03.617Z,24.53
2018-05-26T20:30:33.523Z,24.48
2018-05-26T20:33:06.344Z,24.55
2018-05-26T20:35:38.626Z,24.54
2018-05-26T20:38:10.463Z,24.51
2018-05-26T20:40:42.516Z,24.46
2018-05-26T20:43:12.459Z,24.36
2018-05-26T20:45:44.366Z,24.42
2018-05-26T20:48:14.353Z,24.43
2018-05-26T20:50:46.139Z,24.33
2018-05-26T20:53:17.642Z,24.26
2018-05-26T20:55:47.494Z,24.26
2018-05-26T20:58:20.308Z,24.18
2018-05-26T21:00:50.189Z,24.06
2018-05-26T21:03:21.504Z,24.08
2018-05-26T21:05:54.318Z,24.00
2018-05-26T21:08:27.502Z,24.00
2018-05-26T21:11:00.318Z,23.93
2018-05-26T21:13:30.213Z,23.83
2018-05-26T21:16:04.438Z,23.81
2018-05-26T21:18:34.830Z,23.74
2018-05-26T21:21:07.637Z,23.63
2018-05-26T21:23:39.718Z,23.61
2018-05-26T21:26:13.184Z,23.51
2018-05-26T21:28:45.933Z,23.51
2018-05-26T21:31:19.886Z,23.44
2018-05-26T21:33:50.714Z,23.43
2018-05-26T21:36:25.149Z,23.41
2018-05-26T21:38:58.223Z,23.40
2018-05-26T21:41:29.538Z,23.40
2018-05-26T21:44:00.933Z,23.36
2018-05-26T21:46:33.757Z,23.33
2018-05-26T21:49:05.368Z,23.27
2018-05-26T21:51:38.664Z,23.24
2018-05-26T21:54:10.198Z,23.29
2018-05-26T21:56:42.312Z,23.33
2018-05-26T21:59:16.451Z,23.27
2018-05-26T22:01:47.880Z,23.25
2018-05-26T22:04:17.750Z,23.17
2018-05-26T22:06:50.628Z,23.12
2018-05-26T22:09:22.036Z,23.10
2018-05-26T22:11:55.764Z,23.06
2018-05-26T22:14:27.375Z,23.04
2018-05-26T22:16:59.639Z,22.88
2018-05-26T22:19:33.908Z,22.78
2018-05-26T22:22:06.647Z,22.49
2018-05-26T22:24:38.099Z,22.27
2018-05-26T22:27:11.302Z,22.03
2018-05-26T22:29:41.253Z,21.75
2018-05-26T22:32:15.594Z,21.66
2018-05-26T22:34:50.479Z,21.74
2018-05-26T22:37:21.802Z,21.75
2018-05-26T22:39:53.397Z,21.73
2018-05-26T22:42:22.675Z,21.70
2018-05-26T22:44:55.474Z,21.73
2018-05-26T22:47:25.383Z,21.77
2018-05-26T22:49:55.868Z,21.59
2018-05-26T22:52:27.448Z,21.53
2018-05-26T22:54:59.309Z,21.55
2018-05-26T22:57:32.289Z,21.54
2018-05-26T23:00:02.369Z,21.55
2018-05-26T23:02:33.890Z,21.56
2018-05-26T23:05:04.023Z,21.52
2018-05-26T23:07:37.000Z,21.50
2018-05-26T23:10:09.641Z,21.51
2018-05-26T23:12:42.792Z,21.57
2018-05-26T23:15:14.244Z,21.54
2018-05-26T23:17:47.826Z,21.58
2018-05-26T23:20:19.299Z,21.73
2018-05-26T23:22:52.291Z,21.68
2018-05-26T23:25:23.769Z,21.73
2018-05-26T23:27:56.772Z,21.84
2018-05-26T23:30:31.280Z,21.89
2018-05-26T23:33:04.000Z,21.83
2018-05-26T23:35:35.442Z,21.84
2018-05-26T23:38:06.847Z,21.82
2018-05-26T23:40:39.182Z,21.73
2018-05-26T23:43:10.608Z,21.78
2018-05-26T23:45:42.051Z,21.73
2018-05-26T23:48:16.360Z,21.73
2018-05-26T23:50:49.226Z,21.63
2018-05-26T23:53:22.170Z,21.63
2018-05-26T23:55:53.461Z,21.55
2018-05-26T23:58:24.855Z,21.56
